createdAt,value
2023-10-19T00:01:29.796Z,5.32
2023-10-19T00:04:34.570Z,5.35
2023-10-19T00:07:42.170Z,4.25
2023-10-19T00:10:49.636Z,5.40
2023-10-19T00:13:52.802Z,5.75
2023-10-19T00:17:01.600Z,5.57
2023-10-19T00:20:23.225Z,5.85
2023-10-19T00:23:30.317Z,5.40
2023-10-19T00:26:33.340Z,5.18
2023-10-19T00:29:41.810Z,6.05
2023-10-19T00:32:44.696Z,5.60
2023-10-19T00:35:48.857Z,6.30
2023-10-19T00:38:54.441Z,5.38
2023-10-19T00:42:00.077Z,5.63
2023-10-19T00:45:06.612Z,6.47
2023-10-19T00:48:12.773Z,6.30
2023-10-19T00:51:28.749Z,6.72
2023-10-19T00:54:48.321Z,5.72
2023-10-19T00:57:51.546Z,5.90
2023-10-19T01:00:56.785Z,5.85
2023-10-19T01:04:07.175Z,5.72
2023-10-19T01:07:29.041Z,5.35
2023-10-19T01:10:33.603Z,5.00
2023-10-19T01:13:36.428Z,4.60
2023-10-19T01:16:40.508Z,5.13
2023-10-19T01:19:59.817Z,5.60
2023-10-19T01:23:10.163Z,5.47
2023-10-19T01:26:21.076Z,5.57
2023-10-19T01:29:37.855Z,5.50
2023-10-19T01:32:53.533Z,5.18
2023-10-19T01:36:15.086Z,5.15
2023-10-19T01:39:21.408Z,5.35
2023-10-19T01:42:27.368Z,5.13
2023-10-19T01:45:31.217Z,5.07
2023-10-19T01:48:37.504Z,5.28
2023-10-19T01:51:43.568Z,5.00
2023-10-19T01:54:46.925Z,5.15
2023-10-19T01:57:49.678Z,5.28
2023-10-19T02:01:04.491Z,6.25
2023-10-19T02:04:10.913Z,6.00
2023-10-19T02:07:19.477Z,5.60
2023-10-19T02:10:23.661Z,5.97
2023-10-19T02:13:26.483Z,4.72
2023-10-19T02:16:33.543Z,5.20
2023-10-19T02:22:41.185Z,5.13
2023-10-19T02:25:44.384Z,5.55
2023-10-19T02:28:48.653Z,6.28
2023-10-19T02:31:52.069Z,6.78
2023-10-19T02:35:10.417Z,6.43
2023-10-19T02:38:13.226Z,7.43
2023-10-19T02:41:22.909Z,7.93
2023-10-19T02:44:33.611Z,8.00
2023-10-19T02:47:36.585Z,7.90
2023-10-19T02:50:43.183Z,8.10
2023-10-19T02:53:55.813Z,9.05
2023-10-19T02:57:08.682Z,8.93
2023-10-19T03:00:15.834Z,9.65
2023-10-19T03:03:18.878Z,8.90
2023-10-19T03:06:25.074Z,9.70
2023-10-19T03:09:27.882Z,10.20
2023-10-19T03:12:44.714Z,10.25
2023-10-19T03:15:47.503Z,10.73
2023-10-19T03:18:58.646Z,9.13
2023-10-19T03:22:07.522Z,9.85
2023-10-19T03:25:33.305Z,9.88
2023-10-19T03:28:36.979Z,10.90
2023-10-19T03:31:47.535Z,11.32
2023-10-19T03:34:55.249Z,11.57
2023-10-19T03:38:02.165Z,10.80
2023-10-19T03:41:10.064Z,10.75
2023-10-19T03:44:25.465Z,12.40
2023-10-19T03:47:41.239Z,11.38
2023-10-19T03:50:46.438Z,12.38
2023-10-19T03:53:56.353Z,12.00
2023-10-19T03:57:03.086Z,11.40
2023-10-19T04:00:12.846Z,11.90
2023-10-19T04:03:16.562Z,12.52
2023-10-19T04:06:21.984Z,13.80
2023-10-19T04:09:30.922Z,11.63
2023-10-19T04:12:36.920Z,12.60
2023-10-19T04:15:39.862Z,14.40
2023-10-19T04:18:47.680Z,14.02
2023-10-19T04:21:59.820Z,13.30
2023-10-19T04:25:04.380Z,13.88
2023-10-19T04:28:08.004Z,11.30
2023-10-19T04:31:15.293Z,13.02
2023-10-19T04:34:22.613Z,13.27
2023-10-19T04:37:25.853Z,13.52
2023-10-19T04:40:28.978Z,13.73
2023-10-19T04:43:42.573Z,13.45
2023-10-19T04:46:48.327Z,13.00
2023-10-19T04:49:53.317Z,13.50
2023-10-19T04:52:56.137Z,13.20
2023-10-19T04:56:02.722Z,13.93
2023-10-19T04:59:06.345Z,14.18
2023-10-19T05:02:09.159Z,13.60
2023-10-19T05:05:12.502Z,12.00
2023-10-19T05:08:17.718Z,11.75
2023-10-19T05:11:20.652Z,11.65
2023-10-19T05:14:26.748Z,11.82
2023-10-19T05:17:29.701Z,10.95
2023-10-19T05:20:34.959Z,9.90
2023-10-19T05:23:38.022Z,10.23
2023-10-19T05:26:41.102Z,11.20
2023-10-19T05:29:43.943Z,11.25
2023-10-19T05:32:51.256Z,12.00
2023-10-19T05:35:54.137Z,10.80
2023-10-19T05:38:59.384Z,10.63
2023-10-19T05:42:02.866Z,11.40
2023-10-19T05:45:09.632Z,10.43
2023-10-19T05:48:14.796Z,10.68
2023-10-19T05:51:20.349Z,10.05
2023-10-19T05:54:25.686Z,10.68
2023-10-19T05:57:29.749Z,10.45
2023-10-19T06:00:33.166Z,9.85
2023-10-19T06:03:36.166Z,10.07
2023-10-19T06:06:39.637Z,9.82
2023-10-19T06:09:42.492Z,10.77
2023-10-19T06:12:52.329Z,11.80
2023-10-19T06:15:55.655Z,10.65
2023-10-19T06:18:58.535Z,10.23
2023-10-19T06:22:01.532Z,9.63
2023-10-19T06:25:07.782Z,10.50
2023-10-19T06:28:13.742Z,10.97
2023-10-19T06:31:22.107Z,10.65
2023-10-19T06:34:26.871Z,11.20
2023-10-19T06:37:30.717Z,11.27
2023-10-19T06:40:40.980Z,10.70
2023-10-19T06:43:48.922Z,9.63
2023-10-19T06:46:56.082Z,9.43
2023-10-19T06:50:00.657Z,10.50
2023-10-19T06:53:07.159Z,9.05
2023-10-19T06:56:20.457Z,10.02
2023-10-19T06:59:26.965Z,10.27
2023-10-19T07:02:34.322Z,10.40
2023-10-19T07:05:41.682Z,11.27
2023-10-19T07:08:56.889Z,10.35
2023-10-19T07:12:04.867Z,11.50
2023-10-19T07:15:28.754Z,10.55
2023-10-19T07:18:34.926Z,9.90
2023-10-19T07:21:43.683Z,10.85
2023-10-19T07:24:50.218Z,10.73
2023-10-19T07:27:54.215Z,9.65
2023-10-19T07:31:01.387Z,9.70
2023-10-19T07:34:07.243Z,10.25
2023-10-19T07:37:16.864Z,10.98
2023-10-19T07:40:20.077Z,9.68
2023-10-19T07:43:29.898Z,10.27
2023-10-19T07:46:33.285Z,9.65
2023-10-19T07:49:42.900Z,9.30
2023-10-19T07:52:50.916Z,9.55
2023-10-19T07:55:54.396Z,10.05
2023-10-19T07:58:58.540Z,10.43
2023-10-19T08:02:03.780Z,9.35
2023-10-19T08:05:08.948Z,8.88
2023-10-19T08:08:15.597Z,9.13
2023-10-19T08:11:19.198Z,8.75
2023-10-19T08:14:27.975Z,9.93
2023-10-19T08:17:31.249Z,9.70
2023-10-19T08:20:39.201Z,9.98
2023-10-19T08:23:46.738Z,8.55
2023-10-19T08:26:49.480Z,10.07
2023-10-19T08:29:52.309Z,10.25
2023-10-19T08:32:55.643Z,10.02
2023-10-19T08:36:04.534Z,9.95
2023-10-19T08:39:09.056Z,9.93
2023-10-19T08:42:11.923Z,10.25
2023-10-19T08:45:15.383Z,11.70
2023-10-19T08:48:18.807Z,11.13
2023-10-19T08:51:21.525Z,10.63
2023-10-19T08:54:30.510Z,9.80
2023-10-19T08:57:33.517Z,10.30
2023-10-19T09:00:58.469Z,12.05
2023-10-19T09:07:57.824Z,11.25
2023-10-19T09:11:08.569Z,10.30
2023-10-19T09:14:14.177Z,11.80
2023-10-19T09:17:19.269Z,11.25
2023-10-19T09:20:31.425Z,10.95
2023-10-19T09:23:35.033Z,11.48
2023-10-19T09:26:38.520Z,11.65
2023-10-19T09:29:42.525Z,10.95
2023-10-19T09:32:50.771Z,11.35
2023-10-19T09:35:58.363Z,11.35
2023-10-19T09:39:04.524Z,10.60
2023-10-19T09:42:14.428Z,10.93
2023-10-19T09:45:21.254Z,11.68
2023-10-19T09:48:25.686Z,11.20
2023-10-19T09:51:36.237Z,11.10
2023-10-19T09:55:02.698Z,10.20
2023-10-19T09:58:17.716Z,10.73
2023-10-19T10:01:23.184Z,10.35
2023-10-19T10:04:33.283Z,10.90
2023-10-19T10:10:44.839Z,11.25
2023-10-19T10:13:52.636Z,10.77
2023-10-19T10:17:06.601Z,12.73
2023-10-19T10:20:18.743Z,9.02
2023-10-19T10:23:33.911Z,8.98
2023-10-19T10:26:59.603Z,9.02
2023-10-19T10:30:09.542Z,9.15
2023-10-19T10:33:43.088Z,10.05
2023-10-19T10:37:06.962Z,9.25
2023-10-19T10:40:10.618Z,9.63
2023-10-19T10:43:15.482Z,8.93
2023-10-19T10:46:18.406Z,7.18
2023-10-19T10:49:21.281Z,9.05
2023-10-19T10:52:36.184Z,8.10
2023-10-19T10:55:39.811Z,8.30
2023-10-19T10:58:46.433Z,8.43
2023-10-19T11:01:49.451Z,7.88
2023-10-19T11:04:52.189Z,8.77
2023-10-19T11:08:23.446Z,9.02
2023-10-19T11:11:27.832Z,8.38
2023-10-19T11:14:30.995Z,8.32
2023-10-19T11:17:34.216Z,9.00
2023-10-19T11:20:37.386Z,8.40
2023-10-19T11:23:49.570Z,8.52
2023-10-19T11:26:52.552Z,8.13
2023-10-19T11:30:08.786Z,8.40
2023-10-19T11:33:13.178Z,8.02
2023-10-19T11:36:20.357Z,9.52
2023-10-19T11:39:25.296Z,9.32
2023-10-19T11:42:28.297Z,10.88
2023-10-19T11:45:31.196Z,10.68
2023-10-19T11:48:35.420Z,10.52
2023-10-19T11:51:38.682Z,9.63
2023-10-19T11:54:41.356Z,10.05
2023-10-19T11:57:46.218Z,11.27
2023-10-19T12:00:49.181Z,10.18
2023-10-19T12:03:53.100Z,10.05
2023-10-19T12:06:56.813Z,12.57
2023-10-19T12:09:59.885Z,12.35
2023-10-19T12:13:09.087Z,14.25
2023-10-19T12:16:17.713Z,11.27
2023-10-19T12:19:21.181Z,9.65
2023-10-19T12:22:27.074Z,10.73
2023-10-19T12:25:49.941Z,11.25
2023-10-19T12:28:56.482Z,11.45
2023-10-19T12:31:59.352Z,10.35
2023-10-19T12:35:02.212Z,9.10
2023-10-19T12:38:07.672Z,9.27
2023-10-19T12:41:10.804Z,9.10
2023-10-19T12:44:13.897Z,10.02
2023-10-19T12:47:19.070Z,9.90
2023-10-19T12:50:24.201Z,8.23
2023-10-19T12:53:27.928Z,8.45
2023-10-19T12:56:30.813Z,8.95
2023-10-19T12:59:43.439Z,9.02
2023-10-19T13:02:46.242Z,8.25
2023-10-19T13:05:52.198Z,8.98
2023-10-19T13:08:54.994Z,9.23
2023-10-19T13:12:01.709Z,8.80
2023-10-19T13:15:15.034Z,10.15
2023-10-19T13:18:21.389Z,9.68
2023-10-19T13:21:29.516Z,8.97
2023-10-19T13:24:33.544Z,10.32
2023-10-19T13:27:36.878Z,10.18
2023-10-19T13:30:50.184Z,10.10
2023-10-19T13:33:56.251Z,11.75
2023-10-19T13:37:01.821Z,10.85
2023-10-19T13:40:07.916Z,10.77
2023-10-19T13:43:15.357Z,11.13
2023-10-19T13:46:21.780Z,10.85
2023-10-19T13:49:24.663Z,13.80
2023-10-19T13:52:27.758Z,11.45
2023-10-19T13:55:31.507Z,12.10
2023-10-19T13:58:34.704Z,13.25
2023-10-19T14:01:37.654Z,11.95
2023-10-19T14:04:40.566Z,13.07
2023-10-19T14:07:48.191Z,13.85
2023-10-19T14:10:53.218Z,13.18
2023-10-19T14:13:56.625Z,13.18
2023-10-19T14:17:00.009Z,12.63
2023-10-19T14:20:03.018Z,13.30
2023-10-19T14:23:06.377Z,13.73
2023-10-19T14:26:11.727Z,13.68
2023-10-19T14:29:15.053Z,14.13
2023-10-19T14:32:18.276Z,13.13
2023-10-19T14:35:24.423Z,13.30
2023-10-19T14:38:28.942Z,18.57
2023-10-19T14:41:34.544Z,18.67
2023-10-19T14:44:37.717Z,19.83
2023-10-19T14:47:45.071Z,18.75
2023-10-19T14:50:48.983Z,17.65
2023-10-19T14:53:51.872Z,20.65
2023-10-19T14:56:54.818Z,23.00
2023-10-19T15:00:16.618Z,17.30
2023-10-19T15:03:20.840Z,19.90
2023-10-19T15:06:33.106Z,19.77
2023-10-19T15:09:38.904Z,18.70
2023-10-19T15:12:45.486Z,16.67
2023-10-19T15:15:48.470Z,18.60
2023-10-19T15:18:54.286Z,17.90
2023-10-19T15:21:56.996Z,16.48
2023-10-19T15:25:05.467Z,16.60
2023-10-19T15:28:11.348Z,16.65
2023-10-19T15:31:14.796Z,16.13
2023-10-19T15:34:21.496Z,15.45
2023-10-19T15:37:24.437Z,15.75
2023-10-19T15:40:30.507Z,18.83
2023-10-19T15:43:33.386Z,20.48
2023-10-19T15:46:40.987Z,23.73
2023-10-19T15:50:00.229Z,22.05
2023-10-19T15:53:03.095Z,19.38
2023-10-19T15:56:06.042Z,19.73
2023-10-19T15:59:09.378Z,23.05
2023-10-19T16:02:12.969Z,34.63
2023-10-19T16:05:17.225Z,33.38
2023-10-19T16:08:20.115Z,37.47
2023-10-19T16:11:24.818Z,34.55
2023-10-19T16:14:28.192Z,28.67
2023-10-19T16:17:31.324Z,28.05
2023-10-19T16:20:36.549Z,33.42
2023-10-19T16:23:40.481Z,33.25
2023-10-19T16:26:43.437Z,38.13
2023-10-19T16:29:46.283Z,39.65
2023-10-19T16:32:49.303Z,39.50
2023-10-19T16:36:00.912Z,33.15
2023-10-19T16:39:03.978Z,23.90
2023-10-19T16:42:07.350Z,23.38
2023-10-19T16:45:13.231Z,34.58
2023-10-19T16:48:16.186Z,41.80
2023-10-19T16:51:19.365Z,34.20
2023-10-19T16:54:22.455Z,138.68
2023-10-19T16:57:29.011Z,53.22
2023-10-19T17:00:33.417Z,52.78
2023-10-19T17:03:37.576Z,47.50
2023-10-19T17:06:44.142Z,39.40
2023-10-19T17:09:49.179Z,36.88
2023-10-19T17:12:52.056Z,35.22
2023-10-19T17:15:56.049Z,33.35
2023-10-19T17:18:59.694Z,32.63
2023-10-19T17:22:03.751Z,34.70
2023-10-19T17:25:09.202Z,32.30
2023-10-19T17:28:12.736Z,65.05
2023-10-19T17:31:15.974Z,59.65
2023-10-19T17:34:21.750Z,48.05
2023-10-19T17:37:25.621Z,75.75
2023-10-19T17:40:28.929Z,50.08
2023-10-19T17:43:32.013Z,34.97
2023-10-19T17:46:36.153Z,30.92
2023-10-19T17:49:39.045Z,26.92
2023-10-19T17:52:45.473Z,50.00
2023-10-19T17:55:48.504Z,55.55
2023-10-19T17:58:53.789Z,43.70
2023-10-19T18:01:56.937Z,34.85
2023-10-19T18:05:02.303Z,36.85
2023-10-19T18:08:05.750Z,37.00
2023-10-19T18:11:15.141Z,37.00
2023-10-19T18:14:19.382Z,28.95
2023-10-19T18:17:24.907Z,36.28
2023-10-19T18:20:32.564Z,36.83
2023-10-19T18:23:36.566Z,33.15
2023-10-19T18:26:47.370Z,33.95
2023-10-19T18:29:50.811Z,34.25
2023-10-19T18:32:53.988Z,53.15
2023-10-19T18:36:06.391Z,48.58
2023-10-19T18:39:10.524Z,40.40
2023-10-19T18:42:13.994Z,38.10
2023-10-19T18:45:16.860Z,32.38
2023-10-19T18:48:19.746Z,31.88
2023-10-19T18:51:22.730Z,36.53
2023-10-19T18:54:26.525Z,32.78
2023-10-19T18:57:33.937Z,28.23
2023-10-19T19:00:38.662Z,24.15
2023-10-19T19:03:49.011Z,27.90
2023-10-19T19:06:53.127Z,26.33
2023-10-19T19:09:57.858Z,22.10
2023-10-19T19:13:01.319Z,62.75
2023-10-19T19:16:04.866Z,46.58
2023-10-19T19:19:10.224Z,59.15
2023-10-19T19:22:13.349Z,33.83
2023-10-19T19:25:18.609Z,24.58
2023-10-19T19:28:21.631Z,21.48
2023-10-19T19:31:27.580Z,17.95
2023-10-19T19:34:30.706Z,15.20
2023-10-19T19:37:39.355Z,16.30
2023-10-19T19:40:42.621Z,20.85
2023-10-19T19:43:45.901Z,20.80
2023-10-19T19:46:50.454Z,20.88
2023-10-19T19:49:53.246Z,29.48
2023-10-19T19:52:56.381Z,32.70
2023-10-19T19:56:01.702Z,30.52
2023-10-19T19:59:04.830Z,22.90
2023-10-19T20:02:10.180Z,15.82
2023-10-19T20:05:18.839Z,16.35
2023-10-19T20:08:24.229Z,20.52
2023-10-19T20:11:27.149Z,39.65
2023-10-19T20:14:30.012Z,37.72
2023-10-19T20:17:34.417Z,22.80
2023-10-19T20:20:37.363Z,15.73
2023-10-19T20:23:40.272Z,12.43
2023-10-19T20:26:44.046Z,14.07
2023-10-19T20:29:49.366Z,11.27
2023-10-19T20:32:57.014Z,9.93
2023-10-19T20:36:00.020Z,14.23
2023-10-19T20:39:04.174Z,13.15
2023-10-19T20:42:07.021Z,12.75
2023-10-19T20:45:10.859Z,14.35
2023-10-19T20:48:13.595Z,13.27
2023-10-19T20:51:20.435Z,16.42
2023-10-19T20:54:23.458Z,15.73
2023-10-19T20:57:26.451Z,10.80
2023-10-19T21:00:29.194Z,10.82
2023-10-19T21:03:32.099Z,10.23
2023-10-19T21:06:37.981Z,13.10
2023-10-19T21:09:40.659Z,15.35
2023-10-19T21:12:47.595Z,18.27
2023-10-19T21:15:51.189Z,16.33
2023-10-19T21:18:54.143Z,12.82
2023-10-19T21:21:57.157Z,12.75
2023-10-19T21:25:01.720Z,19.38
2023-10-19T21:28:05.569Z,16.25
2023-10-19T21:31:11.984Z,14.65
2023-10-19T21:34:15.060Z,11.48
2023-10-19T21:37:30.662Z,12.00
2023-10-19T21:40:33.723Z,9.85
2023-10-19T21:43:40.645Z,8.45
2023-10-19T21:46:43.328Z,10.90
2023-10-19T21:49:50.770Z,11.55
2023-10-19T21:52:53.723Z,12.05
2023-10-19T21:56:00.136Z,16.60
2023-10-19T21:59:03.039Z,15.25
2023-10-19T22:02:06.256Z,16.45
2023-10-19T22:05:22.066Z,17.48
2023-10-19T22:08:30.509Z,18.95
2023-10-19T22:11:35.587Z,20.55
2023-10-19T22:14:38.830Z,19.38
2023-10-19T22:17:41.569Z,19.00
2023-10-19T22:20:47.546Z,16.33
2023-10-19T22:23:50.612Z,17.63
2023-10-19T22:26:53.439Z,13.90
2023-10-19T22:29:56.839Z,14.60
2023-10-19T22:33:03.864Z,17.65
2023-10-19T22:39:10.457Z,12.75
2023-10-19T22:42:13.977Z,12.38
2023-10-19T22:45:18.181Z,13.75
2023-10-19T22:48:20.905Z,15.00
2023-10-19T22:51:23.823Z,15.55
2023-10-19T22:54:28.936Z,13.93
2023-10-19T22:57:32.331Z,11.95
2023-10-19T23:00:35.340Z,12.18
2023-10-19T23:03:41.591Z,10.32
2023-10-19T23:06:44.282Z,15.07
2023-10-19T23:09:47.314Z,15.88
2023-10-19T23:12:52.685Z,13.60
2023-10-19T23:15:56.951Z,12.38
2023-10-19T23:19:01.370Z,11.48
2023-10-19T23:22:04.270Z,11.05
2023-10-19T23:25:10.598Z,10.35
2023-10-19T23:28:15.769Z,9.35
2023-10-19T23:31:24.951Z,11.13
2023-10-19T23:34:27.799Z,9.85
2023-10-19T23:37:33.469Z,9.10
2023-10-19T23:40:36.528Z,11.45
2023-10-19T23:43:39.420Z,13.20
2023-10-19T23:46:42.247Z,10.25
2023-10-19T23:49:46.370Z,11.68
2023-10-19T23:52:49.198Z,13.52
2023-10-19T23:55:53.047Z,11.00
2023-10-19T23:58:58.624Z,10.60
